createdAt,value
2023-01-19T00:00:00.838Z,18.4
2023-01-19T00:01:17.944Z,15.6
2023-01-19T00:02:35.049Z,15.7
2023-01-19T00:03:52.155Z,15.7
2023-01-19T00:05:09.260Z,16.8
2023-01-19T00:06:26.365Z,16.7
2023-01-19T00:07:43.471Z,15.4
2023-01-19T00:09:00.576Z,15.4
2023-01-19T00:10:17.682Z,17
2023-01-19T00:11:34.787Z,16.3
2023-01-19T00:12:51.893Z,16.4
2023-01-19T00:14:08.998Z,19
2023-01-19T00:15:25.119Z,16.2
2023-01-19T00:16:42.225Z,16.6
2023-01-19T00:17:59.330Z,14.7
2023-01-19T00:19:16.436Z,15.3
2023-01-19T00:20:33.541Z,16.8
2023-01-19T00:21:50.646Z,16.8
2023-01-19T00:23:07.752Z,16.5
2023-01-19T00:24:23.879Z,16.4
2023-01-19T00:25:40.000Z,16.5
2023-01-19T00:26:57.105Z,16.8
2023-01-19T00:28:14.211Z,17.2
2023-01-19T00:29:30.337Z,19.3
2023-01-19T00:30:46.459Z,17.4
2023-01-19T00:32:03.564Z,17
2023-01-19T00:33:20.670Z,16.8
2023-01-19T00:34:37.775Z,16.6
2023-01-19T00:35:54.880Z,16.9
2023-01-19T00:37:11.986Z,17
2023-01-19T00:38:29.091Z,18.8
2023-01-19T00:39:46.197Z,18
2023-01-19T00:41:03.302Z,18.7
2023-01-19T00:42:20.408Z,18.9
2023-01-19T00:43:37.513Z,17.5
2023-01-19T00:44:54.618Z,18.3
2023-01-19T00:46:11.724Z,19.4
2023-01-19T02:38:34.231Z,21.1
2023-01-19T02:40:20.210Z,19.2
2023-01-19T02:41:36.425Z,22.3
2023-01-19T02:42:53.592Z,20.8
2023-01-19T02:44:09.766Z,21.5
2023-01-19T02:45:25.887Z,20
2023-01-19T02:46:42.992Z,22.9
2023-01-19T02:48:00.098Z,21.2
2023-01-19T02:49:17.203Z,21.2
2023-01-19T02:50:34.309Z,21.6
2023-01-19T02:51:51.414Z,22.1
2023-01-19T02:53:08.520Z,20
2023-01-19T02:54:25.625Z,21.4
2023-01-19T02:55:42.730Z,21.8
2023-01-19T02:56:59.836Z,20.7
2023-01-19T02:58:16.941Z,21.8
2023-01-19T02:59:34.046Z,21.2
2023-01-19T03:00:51.152Z,20
2023-01-19T03:02:07.273Z,21.2
2023-01-19T03:03:24.378Z,19.9
2023-01-19T03:04:41.484Z,21
2023-01-19T03:05:58.589Z,20.3
2023-01-19T03:07:15.695Z,19.8
2023-01-19T03:08:32.800Z,21.5
2023-01-19T03:09:49.906Z,21.3
2023-01-19T03:11:06.032Z,21.2
2023-01-19T03:12:22.154Z,20.4
2023-01-19T03:13:39.259Z,21.5
2023-01-19T03:14:56.364Z,19.5
2023-01-19T03:16:13.470Z,21.3
2023-01-19T03:17:30.575Z,19.1
2023-01-19T03:18:47.681Z,22.1
2023-01-19T03:20:04.786Z,19.9
2023-01-19T03:21:21.892Z,19.4
2023-01-19T03:22:38.997Z,18.7
2023-01-19T03:23:56.103Z,20.4
2023-01-19T03:25:13.208Z,19.5
2023-01-19T03:26:30.314Z,20.7
2023-01-19T03:27:47.419Z,19.9
2023-01-19T03:29:03.541Z,20
2023-01-19T03:30:20.646Z,22.1
2023-01-19T03:31:37.753Z,23.2
2023-01-19T03:32:54.858Z,20.6
2023-01-19T03:34:11.963Z,20.5
2023-01-19T03:35:29.069Z,20.9
2023-01-19T03:36:46.174Z,20.3
2023-01-19T03:38:02.301Z,19.3
2023-01-19T03:39:18.422Z,20.1
2023-01-19T03:40:34.549Z,21.4
2023-01-19T03:41:50.670Z,21.3
2023-01-19T03:43:07.776Z,20.2
2023-01-19T03:44:24.881Z,19.3
2023-01-19T03:45:41.987Z,20.7
2023-01-19T03:46:59.092Z,19.5
2023-01-19T03:48:16.197Z,20.6
2023-01-19T03:49:33.303Z,20.5
2023-01-19T03:50:50.408Z,19
2023-01-19T03:52:07.514Z,20.3
2023-01-19T03:53:24.619Z,20.3
2023-01-19T03:54:41.725Z,18.3
2023-01-19T03:55:58.830Z,20.1
2023-01-19T03:57:15.936Z,21.9
2023-01-19T03:58:32.057Z,22.2
2023-01-19T03:59:49.163Z,20.6
2023-01-19T04:01:06.268Z,19.3
2023-01-19T04:02:23.374Z,19.7
2023-01-19T04:03:40.479Z,20
2023-01-19T04:04:57.584Z,20.2
2023-01-19T04:06:14.690Z,19.1
2023-01-19T04:07:30.817Z,19
2023-01-19T04:08:46.938Z,18.9
2023-01-19T04:10:03.065Z,20.4
2023-01-19T04:11:19.184Z,21.2
2023-01-19T04:12:36.290Z,19.4
2023-01-19T04:13:53.395Z,18
2023-01-19T04:15:10.500Z,18.1
2023-01-19T04:16:27.606Z,19
2023-01-19T04:17:44.711Z,18.6
2023-01-19T04:19:01.816Z,18
2023-01-19T04:20:18.922Z,19.1
2023-01-19T04:21:36.028Z,17.3
2023-01-19T04:22:53.133Z,17.5
2023-01-19T04:24:10.238Z,17.8
2023-01-19T04:25:27.344Z,16.5
2023-01-19T04:26:44.449Z,18.7
2023-01-19T04:28:00.571Z,17.6
2023-01-19T04:29:17.676Z,18.1
2023-01-19T04:30:34.781Z,18.3
2023-01-19T04:31:51.887Z,17.4
2023-01-19T04:33:08.993Z,18.6
2023-01-19T04:34:26.098Z,19.1
2023-01-19T04:35:43.204Z,17.9
2023-01-19T04:36:59.330Z,17.6
2023-01-19T04:38:15.452Z,20.6
2023-01-19T04:39:31.578Z,21
2023-01-19T04:40:47.700Z,34.6
2023-01-19T04:42:04.805Z,22.8
2023-01-19T04:43:21.911Z,21.5
2023-01-19T04:44:39.016Z,18.8
2023-01-19T04:45:56.122Z,21.4
2023-01-19T04:47:13.227Z,20.6
2023-01-19T04:48:30.333Z,20.8
2023-01-19T04:49:47.438Z,21.2
2023-01-19T04:51:04.544Z,19.9
2023-01-19T04:52:21.649Z,18.7
2023-01-19T04:53:38.754Z,20.4
2023-01-19T04:54:55.860Z,19.6
2023-01-19T04:56:12.965Z,22
2023-01-19T04:57:29.087Z,19.5
2023-01-19T04:58:46.192Z,20
2023-01-19T05:00:03.298Z,20.9
2023-01-19T05:01:20.403Z,19.5
2023-01-19T05:02:37.509Z,20.9
2023-01-19T05:03:54.614Z,18.7
2023-01-19T05:05:11.719Z,19.4
2023-01-19T05:06:27.846Z,20.3
2023-01-19T05:07:43.967Z,19.6
2023-01-19T05:09:01.073Z,18.1
2023-01-19T05:10:17.199Z,18
2023-01-19T05:11:33.321Z,18.7
2023-01-19T05:12:50.426Z,20.8
2023-01-19T05:14:07.532Z,19.7
2023-01-19T05:15:24.638Z,16.9
2023-01-19T05:16:41.743Z,17.8
2023-01-19T05:17:58.848Z,18
2023-01-19T05:19:15.954Z,17.1
2023-01-19T05:20:33.059Z,18.5
2023-01-19T05:21:50.165Z,19.3
2023-01-19T05:23:07.270Z,17.9
2023-01-19T05:24:24.375Z,18.1
2023-01-19T05:25:41.481Z,17.8
2023-01-19T05:26:58.587Z,19.2
2023-01-19T05:28:14.708Z,17.1
2023-01-19T05:29:31.813Z,20.8
2023-01-19T05:30:48.920Z,19
2023-01-19T05:32:06.025Z,17.4
2023-01-19T05:33:23.131Z,18.8
2023-01-19T05:34:40.236Z,20
2023-01-19T05:35:57.341Z,20.1
2023-01-19T05:37:13.468Z,20.1
2023-01-19T05:38:29.590Z,20
2023-01-19T05:39:45.716Z,19.9
2023-01-19T05:41:01.838Z,19
2023-01-19T05:42:18.943Z,20.8
2023-01-19T05:43:36.048Z,20.8
2023-01-19T05:44:53.154Z,20.9
2023-01-19T05:46:10.259Z,19.9
2023-01-19T05:47:27.364Z,19.3
2023-01-19T05:48:44.470Z,20.4
2023-01-19T05:50:01.575Z,20.4
2023-01-19T05:51:18.681Z,18.3
2023-01-19T05:52:35.786Z,18.8
2023-01-19T05:53:52.892Z,18.8
2023-01-19T05:55:09.997Z,19.6
2023-01-19T05:56:27.103Z,19.1
2023-01-19T05:57:43.224Z,19.1
2023-01-19T05:59:00.329Z,18.9
2023-01-19T06:00:17.435Z,19.2
2023-01-19T06:01:34.540Z,19.7
2023-01-19T06:02:51.646Z,18.3
2023-01-19T06:04:08.751Z,18.9
2023-01-19T06:05:25.857Z,18.7
2023-01-19T06:06:42.962Z,19
2023-01-19T06:08:00.068Z,22.3
2023-01-19T06:09:17.173Z,21
2023-01-19T06:10:34.278Z,20.8
2023-01-19T06:11:50.405Z,21.2
2023-01-19T06:13:06.527Z,22.4
2023-01-19T06:14:22.653Z,22.8
2023-01-19T06:15:38.775Z,23.9
2023-01-19T06:16:55.880Z,26
2023-01-19T06:18:12.986Z,26.7
2023-01-19T06:19:30.091Z,25
2023-01-19T06:20:47.197Z,26.2
2023-01-19T06:22:04.302Z,25.7
2023-01-19T06:23:21.408Z,28.1
2023-01-19T06:24:38.513Z,29.4
2023-01-19T06:25:55.619Z,31.2
2023-01-19T06:27:12.724Z,31.8
2023-01-19T06:28:29.829Z,28.5
2023-01-19T06:29:46.935Z,26.5
2023-01-19T06:31:04.041Z,28.2
2023-01-19T06:32:20.162Z,28.7
2023-01-19T06:33:37.268Z,26.9
2023-01-19T06:34:54.373Z,27.4
2023-01-19T06:36:11.478Z,26.3
2023-01-19T06:37:28.584Z,26.9
2023-01-19T06:38:45.689Z,29.7
2023-01-19T06:40:02.795Z,28.8
2023-01-19T06:41:18.921Z,30.1
2023-01-19T06:42:35.043Z,28.4
2023-01-19T06:43:51.170Z,28.1
2023-01-19T06:45:07.291Z,29.7
2023-01-19T06:46:24.397Z,28
2023-01-19T06:47:41.503Z,28.5
2023-01-19T06:48:58.608Z,28.3
2023-01-19T06:50:15.714Z,28.6
2023-01-19T06:51:32.819Z,28.1
2023-01-19T06:52:49.925Z,29.9
2023-01-19T06:54:07.030Z,28.5
2023-01-19T06:55:24.135Z,27.5
2023-01-19T06:56:41.242Z,28.2
2023-01-19T06:57:57.364Z,28
2023-01-19T06:59:14.469Z,27.2
2023-01-19T07:00:31.575Z,27.5
2023-01-19T07:01:48.680Z,28.4
2023-01-19T07:03:05.786Z,27.2
2023-01-19T07:04:22.891Z,28.9
2023-01-19T07:05:39.997Z,31.4
2023-01-19T07:06:57.102Z,29.4
2023-01-19T07:08:14.208Z,33.3
2023-01-19T07:09:31.314Z,28.8
2023-01-19T07:10:48.420Z,33.7
2023-01-19T07:12:05.526Z,31.9
2023-01-19T07:13:22.631Z,27.4
2023-01-19T07:14:38.753Z,29.3
2023-01-19T07:15:55.858Z,27.2
2023-01-19T07:17:12.964Z,28
2023-01-19T07:18:30.069Z,28.4
2023-01-19T07:19:47.175Z,26.1
2023-01-19T07:21:04.280Z,28.8
2023-01-19T07:22:21.386Z,28.9
2023-01-19T07:23:38.491Z,27
2023-01-19T07:24:55.597Z,26.3
2023-01-19T07:26:12.702Z,24.6
2023-01-19T07:27:29.808Z,24
2023-01-19T07:28:46.913Z,24.2
2023-01-19T07:30:04.019Z,24
2023-01-19T07:31:20.141Z,25.7
2023-01-19T07:32:37.246Z,25.8
2023-01-19T07:33:54.352Z,22
2023-01-19T07:35:11.457Z,23.4
2023-01-19T07:36:28.563Z,24.3
2023-01-19T07:37:45.668Z,23.8
2023-01-19T07:39:02.774Z,23.1
2023-01-19T07:40:19.879Z,22.6
2023-01-19T07:41:36.985Z,22.7
2023-01-19T07:42:54.090Z,23.5
2023-01-19T07:44:11.196Z,26
2023-01-19T07:45:28.301Z,28.5
2023-01-19T07:46:45.407Z,27.8
2023-01-19T07:48:01.528Z,26.2
2023-01-19T07:49:18.634Z,27.9
2023-01-19T07:50:35.739Z,26.4
2023-01-19T07:51:52.845Z,24.6
2023-01-19T07:53:09.950Z,26.3
2023-01-19T07:54:26.077Z,27.1
2023-01-19T07:55:42.199Z,26.3
2023-01-19T07:56:58.326Z,24
2023-01-19T07:58:14.447Z,22.9
2023-01-19T07:59:31.553Z,24.7
2023-01-19T08:00:48.658Z,23
2023-01-19T08:02:05.764Z,24.6
2023-01-19T08:03:22.869Z,26.2
2023-01-19T08:04:39.974Z,24.8
2023-01-19T08:05:57.080Z,23.2
2023-01-19T08:07:14.185Z,22.5
2023-01-19T08:08:31.291Z,21.1
2023-01-19T08:09:48.396Z,20
2023-01-19T08:11:05.502Z,19.5
2023-01-19T08:12:22.607Z,21.2
2023-01-19T08:13:39.713Z,20.2
2023-01-19T08:14:55.834Z,19.7
2023-01-19T08:16:12.939Z,19.1
2023-01-19T08:17:30.045Z,19.9
2023-01-19T08:18:47.150Z,20.3
2023-01-19T08:20:04.255Z,20.3
2023-01-19T08:21:21.361Z,18.3
2023-01-19T08:22:38.466Z,19.6
2023-01-19T08:23:54.593Z,17.7
2023-01-19T08:25:10.714Z,18.1
2023-01-19T08:26:27.820Z,20.7
2023-01-19T08:27:44.925Z,22.6
2023-01-19T08:29:01.052Z,19
2023-01-19T08:30:17.174Z,20
2023-01-19T08:31:34.279Z,18.8
2023-01-19T08:32:51.384Z,19.3
2023-01-19T08:34:08.489Z,22.5
2023-01-19T08:35:25.595Z,23.7
2023-01-19T08:36:42.701Z,19.6
2023-01-19T08:37:59.806Z,19.6
2023-01-19T08:39:16.912Z,22.3
2023-01-19T08:40:34.017Z,22.8
2023-01-19T08:41:51.122Z,19.7
2023-01-19T08:43:08.227Z,21.7
2023-01-19T08:44:25.333Z,24.5
2023-01-19T08:45:42.438Z,23.3
2023-01-19T08:46:58.560Z,22.4
2023-01-19T08:48:15.665Z,29.3
2023-01-19T08:49:32.771Z,27.3
2023-01-19T08:50:49.876Z,27.4
2023-01-19T08:52:06.982Z,31.3
2023-01-19T08:53:24.087Z,27.5
2023-01-19T08:54:41.192Z,28.3
2023-01-19T08:55:57.319Z,26.3
2023-01-19T08:57:13.441Z,29.8
2023-01-19T08:58:29.567Z,24.1
2023-01-19T08:59:45.689Z,24.1
2023-01-19T09:01:02.794Z,27.5
2023-01-19T09:02:19.900Z,27.8
2023-01-19T09:03:37.006Z,28
2023-01-19T09:04:54.111Z,31.6
2023-01-19T09:06:11.216Z,32
2023-01-19T09:07:28.322Z,37.8
2023-01-19T09:08:45.427Z,33.3
2023-01-19T09:10:02.532Z,25
2023-01-19T09:11:19.638Z,25.2
2023-01-19T09:12:36.743Z,19.1
2023-01-19T09:13:53.849Z,23.5
2023-01-19T09:15:10.954Z,22.1
2023-01-19T09:16:27.076Z,20.8
2023-01-19T09:17:44.181Z,17.6
2023-01-19T09:19:01.286Z,21.3
2023-01-19T09:20:18.391Z,20.9
2023-01-19T09:21:35.497Z,27.2
2023-01-19T09:22:52.602Z,20.4
2023-01-19T09:24:09.708Z,19.3
2023-01-19T09:25:25.834Z,21.3
2023-01-19T09:26:41.956Z,19.7
2023-01-19T09:27:59.061Z,18.9
2023-01-19T09:29:16.166Z,19.8
2023-01-19T09:30:32.293Z,19.3
2023-01-19T09:31:48.414Z,16.4
2023-01-19T09:33:05.520Z,21.2
2023-01-19T09:34:22.625Z,18.2
2023-01-19T09:35:39.730Z,15.4
2023-01-19T09:36:56.837Z,17.7
2023-01-19T09:38:13.942Z,16.5
2023-01-19T09:39:31.048Z,17
2023-01-19T09:40:48.153Z,14.8
2023-01-19T09:42:05.259Z,15.5
2023-01-19T09:43:22.364Z,13.6
2023-01-19T09:44:39.469Z,13.7
2023-01-19T09:45:56.575Z,14.3
2023-01-19T09:47:13.680Z,14.5
2023-01-19T09:48:29.801Z,15
2023-01-19T09:49:46.907Z,21.7
2023-01-19T09:51:04.012Z,14.9
2023-01-19T09:52:21.117Z,13.6
2023-01-19T09:53:38.223Z,14
2023-01-19T09:54:55.328Z,14
2023-01-19T09:56:12.433Z,14.6
2023-01-19T09:57:28.560Z,14.4
2023-01-19T09:58:44.681Z,12.6
2023-01-19T10:00:00.808Z,13.2
2023-01-19T10:01:16.930Z,12.5
2023-01-19T10:02:34.035Z,12.5
2023-01-19T10:03:51.140Z,12.1
2023-01-19T10:05:08.246Z,12.7
2023-01-19T10:06:25.351Z,12.4
2023-01-19T10:07:42.457Z,13.1
2023-01-19T10:08:59.562Z,12.3
2023-01-19T10:10:16.667Z,13.5
2023-01-19T10:11:33.773Z,12.1
2023-01-19T10:12:50.878Z,12.4
2023-01-19T10:14:07.983Z,12.3
2023-01-19T10:15:25.089Z,12.5
2023-01-19T10:16:42.194Z,12.4
2023-01-19T10:17:58.316Z,12.4
2023-01-19T10:19:15.421Z,12.5
2023-01-19T10:20:32.526Z,13.6
2023-01-19T10:21:49.631Z,13.4
2023-01-19T10:23:06.737Z,13.4
2023-01-19T10:24:23.842Z,14.1
2023-01-19T10:25:40.947Z,14.2
2023-01-19T10:26:57.074Z,15
2023-01-19T10:28:13.195Z,14.8
2023-01-19T10:29:30.300Z,14.7
2023-01-19T10:30:46.426Z,13.8
2023-01-19T10:32:02.548Z,13.3
2023-01-19T10:33:19.653Z,13.9
2023-01-19T10:34:36.758Z,14.5
2023-01-19T10:35:53.864Z,14.5
2023-01-19T10:37:10.969Z,14.4
2023-01-19T10:38:28.074Z,14.9
2023-01-19T10:39:45.179Z,14.9
2023-01-19T10:41:02.284Z,15
2023-01-19T10:42:19.389Z,15
2023-01-19T10:43:36.495Z,14.4
2023-01-19T10:44:53.600Z,15.4
2023-01-19T10:46:10.705Z,15.7
2023-01-19T10:47:27.810Z,16
2023-01-19T10:48:43.932Z,16.1
2023-01-19T10:50:01.037Z,16.3
2023-01-19T10:51:18.142Z,14.3
2023-01-19T10:52:35.247Z,14.7
2023-01-19T10:53:52.352Z,14.6
2023-01-19T10:55:09.458Z,14.8
2023-01-19T10:56:26.563Z,14.6
2023-01-19T10:57:42.689Z,14.1
2023-01-19T10:58:58.811Z,14
2023-01-19T11:00:15.915Z,14.5
2023-01-19T11:01:33.020Z,16.1
2023-01-19T11:02:49.147Z,15.4
2023-01-19T11:04:05.268Z,15.6
2023-01-19T11:05:22.373Z,16
2023-01-19T11:06:39.478Z,15.6
2023-01-19T11:07:56.583Z,15.6
2023-01-19T11:09:13.688Z,16.6
2023-01-19T11:10:30.792Z,16
2023-01-19T11:11:47.897Z,15.7
2023-01-19T11:13:05.002Z,15.7
2023-01-19T11:14:22.107Z,16
2023-01-19T11:15:38.228Z,16.9
2023-01-19T11:16:55.333Z,17.3
2023-01-19T11:18:12.438Z,17.3
2023-01-19T11:19:29.543Z,16.2
2023-01-19T11:20:46.648Z,17.9
2023-01-19T11:22:03.753Z,18.8
2023-01-19T11:23:20.858Z,17.6
2023-01-19T11:24:37.963Z,16.8
2023-01-19T11:25:55.068Z,16.9
2023-01-19T11:27:12.173Z,16.3
2023-01-19T11:28:29.278Z,16
2023-01-19T11:29:45.404Z,17.6
2023-01-19T11:31:01.525Z,17.7
2023-01-19T11:32:17.652Z,17.3
2023-01-19T11:33:33.773Z,17.1
2023-01-19T11:34:50.878Z,17.6
2023-01-19T11:36:07.983Z,17.6
2023-01-19T11:37:25.088Z,17.5
2023-01-19T11:38:42.193Z,19.9
2023-01-19T11:39:59.298Z,16.4
2023-01-19T11:41:16.403Z,16.4
2023-01-19T11:42:33.508Z,16.9
2023-01-19T11:43:50.613Z,15.2
2023-01-19T11:45:07.718Z,17.3
2023-01-19T11:46:24.823Z,17.8
2023-01-19T11:47:41.928Z,17.7
2023-01-19T11:48:59.033Z,17.2
2023-01-19T11:50:15.154Z,19.2
2023-01-19T11:51:32.259Z,21.3
2023-01-19T11:52:49.364Z,21.4
2023-01-19T11:54:06.469Z,22.8
2023-01-19T11:55:23.574Z,22.7
2023-01-19T11:56:40.679Z,22.4
2023-01-19T11:57:57.784Z,25.9
2023-01-19T11:59:13.910Z,26
2023-01-19T12:00:30.031Z,22.7
2023-01-19T12:01:46.158Z,23.7
2023-01-19T12:03:02.279Z,25.5
2023-01-19T12:04:19.384Z,24.5
2023-01-19T12:05:36.489Z,23.5
2023-01-19T12:06:53.592Z,25.9
2023-01-19T12:08:10.697Z,28
2023-01-19T12:09:27.802Z,23.3
2023-01-19T12:10:44.908Z,23.3
2023-01-19T12:12:02.013Z,21.8
2023-01-19T12:13:19.118Z,22.2
2023-01-19T12:14:36.223Z,23.8
2023-01-19T12:15:53.328Z,21.3
2023-01-19T12:17:10.433Z,21.2
2023-01-19T12:18:27.538Z,20.1
2023-01-19T12:19:43.659Z,18.6
2023-01-19T12:21:00.764Z,19.3
2023-01-19T12:22:17.869Z,21.1
2023-01-19T12:23:34.974Z,20.6
2023-01-19T12:24:52.079Z,19.5
2023-01-19T12:26:09.185Z,19.2
2023-01-19T12:27:26.290Z,19.5
2023-01-19T12:28:42.416Z,21.8
2023-01-19T12:29:58.537Z,21
2023-01-19T12:31:15.642Z,21.6
2023-01-19T12:32:32.747Z,21.7
2023-01-19T12:33:48.873Z,21.2
2023-01-19T12:35:04.994Z,20.7
2023-01-19T12:36:22.099Z,21.2
2023-01-19T12:37:39.204Z,21.1
2023-01-19T12:38:56.309Z,21.2
2023-01-19T12:40:13.415Z,22.2
2023-01-19T12:41:30.520Z,21.5
2023-01-19T12:42:47.625Z,22.6
2023-01-19T12:44:04.730Z,24.7
2023-01-19T12:45:21.835Z,28.7
2023-01-19T12:46:38.940Z,31.7
2023-01-19T12:47:56.045Z,31.4
2023-01-19T12:49:13.150Z,32.1
2023-01-19T12:50:30.255Z,30.1
2023-01-19T12:51:46.376Z,30.8
2023-01-19T12:53:03.481Z,32.5
2023-01-19T12:54:20.586Z,34.2
2023-01-19T12:55:37.691Z,32
2023-01-19T12:56:54.796Z,34.4
2023-01-19T12:58:11.901Z,35.6
2023-01-19T12:59:29.006Z,37.3
2023-01-19T13:00:45.132Z,38.6
2023-01-19T13:02:01.253Z,42.7
2023-01-19T13:03:18.358Z,36.9
2023-01-19T13:04:34.484Z,38.2
2023-01-19T13:05:50.605Z,36.8
2023-01-19T13:07:07.710Z,38.9
2023-01-19T13:08:24.816Z,37.2
2023-01-19T13:09:41.921Z,38.5
2023-01-19T13:10:59.024Z,36.2
2023-01-19T13:12:16.129Z,36.5
2023-01-19T13:13:33.234Z,36.4
2023-01-19T13:14:50.337Z,33.9
2023-01-19T13:16:07.442Z,34.6
2023-01-19T13:17:24.547Z,37.2
2023-01-19T13:18:41.653Z,37.6
2023-01-19T13:19:58.758Z,34.6
2023-01-19T13:21:15.863Z,38.4
2023-01-19T13:22:31.984Z,38
2023-01-19T13:23:49.089Z,37.7
2023-01-19T13:25:06.194Z,36.3
2023-01-19T13:26:23.299Z,34.5
2023-01-19T13:27:40.404Z,36.1
2023-01-19T13:28:57.509Z,36
2023-01-19T13:30:14.614Z,36.3
2023-01-19T13:31:31.719Z,37
2023-01-19T13:32:48.824Z,41.9
2023-01-19T13:34:05.930Z,39.1
2023-01-19T13:35:23.035Z,40.5
2023-01-19T13:36:39.161Z,38.9
2023-01-19T13:37:55.282Z,36.6
2023-01-19T13:39:12.387Z,41.4
2023-01-19T13:40:28.513Z,39.4
2023-01-19T13:41:44.635Z,41.2
2023-01-19T13:43:01.740Z,43.9
2023-01-19T13:44:18.845Z,41.7
2023-01-19T13:45:35.950Z,41.3
2023-01-19T13:46:53.055Z,41.1
2023-01-19T13:48:10.160Z,39
2023-01-19T13:49:27.265Z,45.8
2023-01-19T13:50:44.370Z,40.8
2023-01-19T13:52:01.475Z,39.2
2023-01-19T13:53:18.580Z,39.8
2023-01-19T13:54:35.685Z,36.7
2023-01-19T13:55:52.790Z,39.8
2023-01-19T13:57:09.895Z,36.6
2023-01-19T13:58:26.016Z,39.2
2023-01-19T13:59:43.121Z,35.5
2023-01-19T14:01:00.226Z,37.6
2023-01-19T14:02:17.331Z,37.2
2023-01-19T14:03:34.436Z,33.7
2023-01-19T14:04:51.541Z,31.4
2023-01-19T14:06:08.646Z,32.3
2023-01-19T14:07:24.772Z,33.2
2023-01-19T14:08:40.893Z,32.2
2023-01-19T14:09:57.998Z,32.3
2023-01-19T14:11:14.125Z,31.8
2023-01-19T14:12:30.246Z,32.3
2023-01-19T14:13:47.351Z,31.7
2023-01-19T14:15:04.456Z,35
2023-01-19T14:16:21.561Z,34.5
2023-01-19T14:17:38.666Z,37.4
2023-01-19T14:18:55.771Z,35.7
2023-01-19T14:20:12.876Z,37.5
2023-01-19T14:21:29.981Z,39.2
2023-01-19T14:22:47.086Z,40.1
2023-01-19T14:24:04.191Z,37.2
2023-01-19T14:25:21.296Z,39.8
2023-01-19T14:26:38.401Z,41.5
2023-01-19T14:27:55.506Z,42.8
2023-01-19T14:29:11.627Z,39.4
2023-01-19T14:30:28.732Z,42
2023-01-19T14:31:45.837Z,40
2023-01-19T14:33:02.942Z,40.6
2023-01-19T14:34:20.048Z,39.3
2023-01-19T14:35:37.154Z,38.3
2023-01-19T14:36:54.258Z,38.8
2023-01-19T14:38:11.364Z,38.9
2023-01-19T14:39:28.469Z,39.7
2023-01-19T14:40:45.574Z,40.3
2023-01-19T14:42:02.679Z,37.8
2023-01-19T14:43:19.784Z,43.6
2023-01-19T14:44:35.910Z,45.5
2023-01-19T14:45:52.032Z,42
2023-01-19T14:47:08.158Z,42.2
2023-01-19T14:48:24.279Z,39.1
2023-01-19T14:49:41.384Z,44.1
2023-01-19T14:50:58.489Z,42.7
2023-01-19T14:52:15.594Z,41.4
2023-01-19T14:53:32.699Z,38.8
2023-01-19T14:54:49.804Z,39.3
2023-01-19T14:56:06.909Z,40.9
2023-01-19T14:57:24.014Z,40.1
2023-01-19T14:58:41.119Z,40.2
2023-01-19T14:59:58.225Z,40.3
2023-01-19T15:01:15.330Z,38.2
2023-01-19T15:02:32.435Z,38.1
2023-01-19T15:03:49.540Z,40.9
2023-01-19T15:05:05.661Z,43.9
2023-01-19T15:06:22.766Z,36.8
2023-01-19T15:07:39.872Z,37.7
2023-01-19T15:08:56.977Z,35.2
2023-01-19T15:10:14.082Z,33.2
2023-01-19T15:11:31.188Z,35.1
2023-01-19T15:12:48.293Z,33.2
2023-01-19T15:14:05.398Z,34
2023-01-19T15:15:22.503Z,31.9
2023-01-19T15:16:39.608Z,31.4
2023-01-19T15:17:56.713Z,32.2
2023-01-19T15:19:13.818Z,33.6
2023-01-19T15:20:30.923Z,32.3
2023-01-19T15:21:47.044Z,33.1
2023-01-19T15:23:04.149Z,34.4
2023-01-19T15:24:21.255Z,32
2023-01-19T15:25:38.360Z,32.4
2023-01-19T15:26:55.465Z,33.6
2023-01-19T15:28:12.570Z,33.5
2023-01-19T15:29:29.675Z,35.9
2023-01-19T15:30:46.780Z,34.2
2023-01-19T15:32:03.883Z,36.5
2023-01-19T15:33:20.004Z,34.3
2023-01-19T15:34:37.109Z,32.2
2023-01-19T15:35:54.214Z,33.3
2023-01-19T15:37:11.319Z,35.8
2023-01-19T15:38:28.424Z,32.6
2023-01-19T15:39:45.529Z,31.3
2023-01-19T15:41:02.634Z,40
2023-01-19T15:42:19.739Z,45.2
2023-01-19T15:43:36.844Z,41.7
2023-01-19T15:44:53.950Z,36.9
2023-01-19T15:46:11.055Z,36.8
2023-01-19T15:47:28.160Z,38.1
2023-01-19T15:48:44.286Z,32.7
2023-01-19T15:50:00.408Z,33.5
2023-01-19T15:51:16.534Z,35.9
2023-01-19T15:52:32.655Z,32
2023-01-19T15:53:49.761Z,32.7
2023-01-19T15:55:06.866Z,31.8
2023-01-19T15:56:23.971Z,30.8
2023-01-19T15:57:41.076Z,32.2
2023-01-19T15:58:58.181Z,32.7
2023-01-19T16:00:15.286Z,31.7
2023-01-19T16:01:32.391Z,31.5
2023-01-19T16:02:49.496Z,30.7
2023-01-19T16:04:06.601Z,32.3
2023-01-19T16:05:23.706Z,37.1
2023-01-19T16:06:40.812Z,35.1
2023-01-19T16:07:57.917Z,35
2023-01-19T16:09:14.038Z,39
2023-01-19T16:10:31.143Z,35.2
2023-01-19T16:11:48.249Z,38.1
2023-01-19T16:13:05.354Z,38.8
2023-01-19T16:14:22.459Z,38
2023-01-19T16:15:39.564Z,36.4
2023-01-19T16:16:56.669Z,37.1
2023-01-19T16:18:12.795Z,38.1
2023-01-19T16:19:28.916Z,38.5
2023-01-19T16:20:46.021Z,37.7
2023-01-19T16:22:03.126Z,39.8
2023-01-19T16:23:20.231Z,39.2
2023-01-19T16:24:36.358Z,38.1
2023-01-19T16:25:52.479Z,37.2
2023-01-19T16:27:09.584Z,36.7
2023-01-19T16:28:26.689Z,33.3
2023-01-19T16:29:43.794Z,34.5
2023-01-19T16:31:00.899Z,36.4
2023-01-19T16:32:18.004Z,35.4
2023-01-19T16:33:35.110Z,34.2
2023-01-19T16:34:52.215Z,33.7
2023-01-19T16:36:09.320Z,30
2023-01-19T16:37:26.425Z,30.6
2023-01-19T16:38:43.530Z,30.2
2023-01-19T16:40:00.636Z,28.4
2023-01-19T16:41:17.741Z,28.2
2023-01-19T16:42:33.862Z,28.5
2023-01-19T16:43:50.967Z,28.7
2023-01-19T16:45:08.072Z,30.4
2023-01-19T16:46:25.178Z,28.2
2023-01-19T16:47:42.283Z,28.1
2023-01-19T16:48:59.388Z,28.1
2023-01-19T16:50:16.493Z,29.5
2023-01-19T16:51:33.598Z,26.1
2023-01-19T16:52:49.725Z,30.2
2023-01-19T16:54:05.846Z,28
2023-01-19T16:55:21.972Z,29.7
2023-01-19T16:56:38.093Z,28.6
2023-01-19T16:57:55.198Z,31.1
2023-01-19T16:59:12.304Z,28.2
2023-01-19T17:00:29.409Z,32.1
2023-01-19T17:01:46.514Z,28.6
2023-01-19T17:03:03.619Z,31.4
2023-01-19T17:04:20.724Z,29.5
2023-01-19T17:05:37.829Z,32.5
2023-01-19T17:06:54.934Z,30
2023-01-19T17:08:12.039Z,30.3
2023-01-19T17:09:29.144Z,29.6
2023-01-19T17:10:46.249Z,30.6
2023-01-19T17:12:03.354Z,28.8
2023-01-19T17:13:20.459Z,29.7
2023-01-19T17:14:36.581Z,29.1
2023-01-19T17:15:53.686Z,26.9
2023-01-19T17:17:10.791Z,28
2023-01-19T17:18:27.896Z,29.7
2023-01-19T17:19:45.001Z,30.5
2023-01-19T17:21:02.106Z,29.5
2023-01-19T17:22:18.233Z,29.6
2023-01-19T17:23:34.354Z,33.4
2023-01-19T17:24:51.459Z,28.5
2023-01-19T17:26:08.565Z,30.4
2023-01-19T17:27:24.692Z,30.1
2023-01-19T17:28:40.813Z,31.2
2023-01-19T17:29:57.918Z,27.7
2023-01-19T17:31:15.024Z,28.7
2023-01-19T17:32:32.129Z,28.2
2023-01-19T17:33:49.234Z,28.3
2023-01-19T17:35:06.339Z,30.2
2023-01-19T17:36:23.444Z,29.5
2023-01-19T17:37:40.549Z,26.8
2023-01-19T17:38:57.654Z,25.2
2023-01-19T17:40:14.760Z,26.7
2023-01-19T17:41:31.865Z,25.5
2023-01-19T17:42:48.971Z,27.3
2023-01-19T17:44:06.076Z,26
2023-01-19T17:45:22.197Z,28.6
2023-01-19T17:46:39.302Z,27.1
2023-01-19T17:47:56.408Z,26.6
2023-01-19T17:49:13.514Z,28
2023-01-19T17:50:30.619Z,27.9
2023-01-19T17:51:47.724Z,27.8
2023-01-19T17:53:04.829Z,30.3
2023-01-19T17:54:20.956Z,29.8
2023-01-19T17:55:37.077Z,32.5
2023-01-19T17:56:53.203Z,32
2023-01-19T17:58:09.324Z,31.9
2023-01-19T17:59:26.429Z,36.4
2023-01-19T18:00:43.535Z,33.7
2023-01-19T18:02:00.640Z,34.6
2023-01-19T18:03:17.745Z,33.3
2023-01-19T18:04:34.850Z,34.6
2023-01-19T18:05:51.955Z,33.5
2023-01-19T18:07:09.060Z,31.8
2023-01-19T18:08:26.166Z,32.4
2023-01-19T18:09:43.271Z,33.6
2023-01-19T18:11:00.376Z,30
2023-01-19T18:12:17.481Z,32.3
2023-01-19T18:13:34.586Z,33.1
2023-01-19T18:14:50.707Z,39.3
2023-01-19T18:16:07.812Z,41.1
2023-01-19T18:17:24.918Z,34
2023-01-19T18:18:42.023Z,33
2023-01-19T18:19:59.128Z,33.6
2023-01-19T18:21:16.233Z,35
2023-01-19T18:22:33.339Z,32.2
2023-01-19T18:23:49.465Z,34.2
2023-01-19T18:25:05.586Z,36.4
2023-01-19T18:26:21.713Z,37.7
2023-01-19T18:27:37.834Z,40.6
2023-01-19T18:28:54.939Z,38
2023-01-19T18:30:12.045Z,36.1
2023-01-19T18:31:29.150Z,31.6
2023-01-19T18:32:46.255Z,30.9
2023-01-19T18:34:03.360Z,34.7
2023-01-19T18:35:20.466Z,32.2
2023-01-19T18:36:37.571Z,34.2
2023-01-19T18:37:54.676Z,33.3
2023-01-19T18:39:11.781Z,33.9
2023-01-19T18:40:28.886Z,35
2023-01-19T18:41:45.992Z,29.2
2023-01-19T18:43:03.097Z,32
2023-01-19T18:44:19.218Z,30.3
2023-01-19T18:45:36.324Z,28.8
2023-01-19T18:46:53.429Z,41
2023-01-19T18:49:27.639Z,32.5
2023-01-19T18:50:44.745Z,28.4
2023-01-19T18:52:01.848Z,26.5
2023-01-19T18:53:18.953Z,30.1
2023-01-19T18:54:35.080Z,36.4
2023-01-19T18:55:51.201Z,39.2
2023-01-19T18:57:08.306Z,45.1
2023-01-19T18:58:24.433Z,35.2
2023-01-19T18:59:40.554Z,41.8
2023-01-19T19:00:57.660Z,37.5
2023-01-19T19:02:14.765Z,33.2
2023-01-19T19:03:31.871Z,31.2